createdAt,value
2023-05-08T00:00:00.429Z,60.20
2023-05-08T00:02:28.408Z,59.94
2023-05-08T00:04:56.506Z,59.98
2023-05-08T00:07:25.905Z,59.89
2023-05-08T00:09:53.882Z,59.92
2023-05-08T00:12:21.856Z,59.90
2023-05-08T00:14:49.855Z,59.88
2023-05-08T00:17:17.781Z,59.79
2023-05-08T00:19:45.748Z,59.76
2023-05-08T00:22:16.669Z,59.67
2023-05-08T00:24:46.125Z,59.75
2023-05-08T00:27:14.185Z,59.51
2023-05-08T00:29:42.230Z,59.59
2023-05-08T00:32:10.603Z,59.57
2023-05-08T00:34:38.566Z,59.49
2023-05-08T00:37:06.547Z,59.49
2023-05-08T00:39:37.296Z,59.43
2023-05-08T00:42:06.690Z,59.41
2023-05-08T00:44:34.656Z,59.40
2023-05-08T00:47:02.902Z,59.21
2023-05-08T00:49:30.834Z,59.27
2023-05-08T00:51:59.341Z,59.00
2023-05-08T00:54:30.556Z,59.21
2023-05-08T00:56:59.729Z,59.22
2023-05-08T00:59:29.162Z,59.15
2023-05-08T01:01:57.250Z,59.04
2023-05-08T01:04:27.650Z,59.15
2023-05-08T01:06:55.623Z,59.14
2023-05-08T01:09:23.579Z,59.16
2023-05-08T01:12:08.672Z,59.07
2023-05-08T01:14:46.566Z,59.06
2023-05-08T01:17:24.276Z,58.98
2023-05-08T01:20:06.823Z,58.97
2023-05-08T01:23:00.367Z,58.72
2023-05-08T01:25:56.472Z,58.64
2023-05-08T01:28:55.926Z,58.73
2023-05-08T01:31:38.733Z,58.53
2023-05-08T01:34:12.941Z,58.65
2023-05-08T01:36:48.238Z,58.52
2023-05-08T01:39:20.271Z,58.42
2023-05-08T01:41:58.272Z,58.43
2023-05-08T01:44:32.472Z,58.33
2023-05-08T01:47:06.955Z,58.34
2023-05-08T01:49:42.081Z,58.10
2023-05-08T01:52:14.921Z,58.29
2023-05-08T01:54:49.989Z,58.19
2023-05-08T01:57:19.513Z,58.32
2023-05-08T01:59:49.721Z,58.28
2023-05-08T02:02:19.555Z,58.68
2023-05-08T02:04:50.506Z,58.58
2023-05-08T02:07:19.877Z,58.65
2023-05-08T02:09:52.797Z,58.54
2023-05-08T02:12:23.304Z,58.37
2023-05-08T02:14:54.838Z,58.40
2023-05-08T02:17:23.165Z,58.25
2023-05-08T02:19:54.578Z,58.37
2023-05-08T02:22:24.506Z,58.24
2023-05-08T02:24:55.403Z,58.17
2023-05-08T02:27:26.640Z,58.30
2023-05-08T02:29:56.093Z,58.38
2023-05-08T02:32:27.226Z,58.21
2023-05-08T02:35:02.960Z,58.24
2023-05-08T02:37:33.170Z,58.09
2023-05-08T02:40:03.141Z,58.20
2023-05-08T02:42:31.865Z,58.20
2023-05-08T02:44:59.894Z,58.14
2023-05-08T02:47:35.467Z,58.08
2023-05-08T02:50:13.418Z,58.33
2023-05-08T02:52:45.481Z,58.15
2023-05-08T02:55:21.709Z,58.11
2023-05-08T02:57:58.338Z,58.17
2023-05-08T03:00:32.478Z,57.89
2023-05-08T03:03:06.424Z,57.84
2023-05-08T03:05:38.394Z,57.72
2023-05-08T03:08:11.321Z,57.59
2023-05-08T03:10:44.299Z,57.59
2023-05-08T03:13:14.241Z,57.56
2023-05-08T03:15:45.872Z,57.46
2023-05-08T03:18:17.774Z,57.52
2023-05-08T03:20:50.691Z,57.38
2023-05-08T03:23:21.509Z,57.31
2023-05-08T03:25:49.565Z,57.42
2023-05-08T03:28:19.342Z,57.34
2023-05-08T03:30:47.725Z,57.28
2023-05-08T03:33:16.247Z,57.30
2023-05-08T03:35:47.521Z,57.34
2023-05-08T03:38:17.353Z,57.36
2023-05-08T03:40:46.587Z,57.56
2023-05-08T03:43:16.381Z,57.43
2023-05-08T03:45:46.417Z,57.49
2023-05-08T03:48:15.400Z,57.87
2023-05-08T03:50:44.549Z,57.44
2023-05-08T03:53:12.519Z,57.37
2023-05-08T03:55:41.929Z,57.44
2023-05-08T03:58:18.754Z,57.02
2023-05-08T04:00:58.006Z,57.17
2023-05-08T04:03:33.904Z,57.83
2023-05-08T04:06:08.707Z,57.44
2023-05-08T04:08:48.079Z,57.57
2023-05-08T04:11:30.119Z,57.23
2023-05-08T04:14:03.097Z,57.29
2023-05-08T04:16:36.453Z,57.22
2023-05-08T04:19:10.570Z,56.91
2023-05-08T04:21:44.276Z,56.67
2023-05-08T04:24:15.974Z,56.59
2023-05-08T04:26:46.708Z,56.64
2023-05-08T04:29:15.349Z,56.64
2023-05-08T04:31:43.812Z,56.72
2023-05-08T04:34:11.912Z,56.52
2023-05-08T04:36:40.338Z,56.48
2023-05-08T04:39:08.277Z,56.48
2023-05-08T04:41:36.321Z,56.35
2023-05-08T04:44:06.045Z,56.25
2023-05-08T04:46:34.106Z,56.27
2023-05-08T04:49:02.173Z,56.21
2023-05-08T04:51:32.986Z,56.53
2023-05-08T04:54:01.164Z,56.95
2023-05-08T04:56:29.134Z,57.54
2023-05-08T04:58:57.049Z,57.62
2023-05-08T05:01:26.535Z,57.48
2023-05-08T05:03:54.629Z,57.34
2023-05-08T05:06:22.558Z,57.32
2023-05-08T05:08:50.571Z,57.01
2023-05-08T05:11:18.507Z,56.69
2023-05-08T05:13:46.479Z,56.50
2023-05-08T05:16:14.539Z,56.52
2023-05-08T05:18:43.878Z,56.42
2023-05-08T05:21:12.100Z,56.44
2023-05-08T05:23:40.160Z,56.23
2023-05-08T05:26:08.268Z,56.13
2023-05-08T05:28:36.278Z,56.18
2023-05-08T05:31:04.841Z,56.09
2023-05-08T05:33:32.823Z,56.15
2023-05-08T05:36:02.446Z,56.25
2023-05-08T05:38:30.442Z,55.83
2023-05-08T05:40:58.467Z,56.15
2023-05-08T05:43:26.528Z,55.96
2023-05-08T05:45:55.985Z,56.04
2023-05-08T05:48:24.047Z,56.13
2023-05-08T05:50:51.995Z,56.05
2023-05-08T05:53:21.300Z,56.02
2023-05-08T05:55:49.238Z,55.84
2023-05-08T05:58:17.263Z,55.81
2023-05-08T06:00:45.877Z,55.94
2023-05-08T06:03:14.162Z,56.23
2023-05-08T06:05:42.379Z,55.99
2023-05-08T06:08:11.362Z,55.98
2023-05-08T06:10:40.697Z,56.08
2023-05-08T06:13:09.714Z,56.06
2023-05-08T06:15:37.722Z,56.05
2023-05-08T06:18:05.960Z,55.92
2023-05-08T06:20:33.922Z,55.85
2023-05-08T06:23:01.886Z,55.91
2023-05-08T06:25:31.007Z,55.93
2023-05-08T06:28:00.468Z,56.07
2023-05-08T06:30:28.415Z,55.91
2023-05-08T06:32:56.904Z,55.68
2023-05-08T06:35:25.033Z,56.20
2023-05-08T06:37:53.401Z,56.07
2023-05-08T06:40:21.628Z,55.96
2023-05-08T06:42:49.519Z,56.04
2023-05-08T06:45:18.892Z,56.02
2023-05-08T06:47:46.897Z,56.27
2023-05-08T06:50:14.922Z,56.41
2023-05-08T06:52:42.784Z,56.25
2023-05-08T06:55:11.310Z,56.37
2023-05-08T06:57:39.376Z,56.13
2023-05-08T07:00:08.844Z,56.19
2023-05-08T07:02:38.209Z,56.28
2023-05-08T07:05:07.155Z,56.26
2023-05-08T07:07:35.222Z,56.20
2023-05-08T07:10:03.260Z,56.22
2023-05-08T07:12:31.235Z,56.18
2023-05-08T07:14:59.665Z,56.22
2023-05-08T07:17:30.853Z,56.27
2023-05-08T07:20:00.192Z,56.40
2023-05-08T07:22:28.211Z,56.51
2023-05-08T07:24:56.113Z,56.41
2023-05-08T07:27:24.092Z,56.33
2023-05-08T07:29:54.559Z,56.41
2023-05-08T07:32:22.501Z,56.23
2023-05-08T07:34:52.835Z,56.55
2023-05-08T07:37:23.292Z,56.33
2023-05-08T07:39:51.353Z,56.32
2023-05-08T07:42:19.292Z,56.47
2023-05-08T07:44:53.698Z,56.40
2023-05-08T07:47:22.818Z,56.38
2023-05-08T07:49:51.034Z,56.38
2023-05-08T07:52:18.987Z,56.29
2023-05-08T07:54:48.438Z,56.25
2023-05-08T07:57:18.965Z,56.26
2023-05-08T07:59:46.931Z,56.10
2023-05-08T08:02:14.876Z,56.05
2023-05-08T08:04:42.849Z,56.26
2023-05-08T08:07:10.747Z,56.19
2023-05-08T08:09:38.682Z,56.28
2023-05-08T08:12:08.210Z,56.29
2023-05-08T08:14:36.345Z,56.15
2023-05-08T08:17:04.327Z,56.38
2023-05-08T08:19:32.340Z,56.09
2023-05-08T08:22:00.295Z,56.33
2023-05-08T08:24:29.320Z,56.22
2023-05-08T08:26:57.405Z,56.37
2023-05-08T08:29:26.898Z,56.27
2023-05-08T08:31:54.856Z,56.34
2023-05-08T08:34:22.919Z,56.38
2023-05-08T08:36:50.968Z,56.81
2023-05-08T08:39:22.727Z,56.62
2023-05-08T08:41:50.717Z,56.56
2023-05-08T08:44:18.771Z,56.66
2023-05-08T08:46:53.198Z,56.60
2023-05-08T08:49:26.217Z,56.90
2023-05-08T08:52:00.098Z,56.76
2023-05-08T08:54:34.696Z,56.95
2023-05-08T08:57:07.145Z,56.84
2023-05-08T08:59:37.528Z,56.87
2023-05-08T09:02:14.840Z,56.95
2023-05-08T09:04:42.837Z,56.92
2023-05-08T09:07:11.673Z,57.02
2023-05-08T09:09:44.736Z,56.72
2023-05-08T09:12:13.972Z,56.80
2023-05-08T09:14:42.067Z,56.81
2023-05-08T09:17:11.815Z,57.12
2023-05-08T09:19:39.874Z,57.25
2023-05-08T09:22:09.370Z,57.40
2023-05-08T09:24:57.289Z,57.37
2023-05-08T09:27:27.351Z,57.37
2023-05-08T09:30:00.775Z,57.19
2023-05-08T09:32:30.977Z,57.13
2023-05-08T09:34:59.865Z,57.27
2023-05-08T09:37:30.124Z,57.19
2023-05-08T09:40:17.532Z,57.29
2023-05-08T09:42:46.133Z,57.29
2023-05-08T09:45:27.834Z,57.32
2023-05-08T09:47:57.485Z,57.32
2023-05-08T09:50:26.307Z,57.45
2023-05-08T09:52:54.393Z,57.58
2023-05-08T09:55:22.350Z,57.65
2023-05-08T09:57:56.416Z,57.52
2023-05-08T10:00:24.927Z,57.53
2023-05-08T10:02:59.695Z,57.38
2023-05-08T10:05:31.658Z,57.69
2023-05-08T10:08:00.981Z,57.53
2023-05-08T10:10:31.989Z,57.62
2023-05-08T10:13:00.304Z,57.81
2023-05-08T10:15:31.206Z,57.56
2023-05-08T10:18:06.409Z,57.70
2023-05-08T10:20:36.307Z,57.52
2023-05-08T10:23:11.438Z,57.77
2023-05-08T10:25:45.850Z,57.96
2023-05-08T10:28:19.630Z,58.23
2023-05-08T10:30:51.370Z,58.02
2023-05-08T10:33:24.996Z,57.96
2023-05-08T10:35:53.724Z,57.99
2023-05-08T10:38:21.951Z,57.86
2023-05-08T10:40:52.935Z,58.28
2023-05-08T10:43:21.695Z,58.37
2023-05-08T10:45:49.922Z,58.32
2023-05-08T10:48:28.454Z,58.63
2023-05-08T10:51:04.091Z,58.26
2023-05-08T10:53:37.971Z,57.84
2023-05-08T10:56:06.750Z,58.38
2023-05-08T10:58:37.253Z,58.47
2023-05-08T11:01:16.250Z,58.34
2023-05-08T11:03:50.681Z,58.84
2023-05-08T11:06:39.715Z,58.65
2023-05-08T11:09:08.499Z,58.63
2023-05-08T11:11:40.114Z,58.56
2023-05-08T11:14:17.498Z,58.51
2023-05-08T11:17:08.343Z,58.54
2023-05-08T11:19:39.052Z,58.58
2023-05-08T11:22:17.882Z,58.43
2023-05-08T11:24:51.056Z,58.62
2023-05-08T11:27:19.552Z,58.62
2023-05-08T11:30:23.885Z,58.55
2023-05-08T11:33:18.685Z,58.49
2023-05-08T11:35:58.740Z,58.44
2023-05-08T11:38:34.919Z,58.48
2023-05-08T11:41:07.379Z,58.62
2023-05-08T11:44:20.379Z,58.78
2023-05-08T11:46:53.555Z,58.53
2023-05-08T11:49:27.056Z,58.45
2023-05-08T11:52:00.294Z,58.57
2023-05-08T11:54:31.621Z,58.46
2023-05-08T11:56:59.889Z,58.45
2023-05-08T11:59:28.087Z,58.63
2023-05-08T12:02:07.839Z,58.65
2023-05-08T12:04:45.436Z,58.70
2023-05-08T12:07:16.113Z,58.78
2023-05-08T12:09:44.230Z,58.71
2023-05-08T12:12:12.157Z,58.67
2023-05-08T12:14:40.127Z,58.93
2023-05-08T12:17:08.170Z,58.75
2023-05-08T12:19:36.238Z,58.41
2023-05-08T12:22:04.262Z,58.83
2023-05-08T12:24:33.697Z,59.00
2023-05-08T12:27:04.885Z,59.16
2023-05-08T12:29:37.226Z,59.25
2023-05-08T12:32:05.630Z,59.14
2023-05-08T12:34:33.979Z,59.01
2023-05-08T12:37:05.551Z,59.26
2023-05-08T12:39:38.489Z,59.26
2023-05-08T12:42:06.809Z,59.18
2023-05-08T12:44:34.820Z,59.48
2023-05-08T12:47:02.853Z,59.44
2023-05-08T12:49:32.453Z,59.56
2023-05-08T12:52:05.246Z,59.41
2023-05-08T12:54:34.734Z,59.41
2023-05-08T12:57:09.963Z,59.48
2023-05-08T12:59:37.975Z,59.48
2023-05-08T13:02:06.266Z,59.63
2023-05-08T13:04:38.500Z,60.09
2023-05-08T13:07:06.804Z,59.98
2023-05-08T13:09:35.159Z,60.20
2023-05-08T13:12:05.776Z,60.22
2023-05-08T13:14:33.730Z,60.19
2023-05-08T13:17:01.984Z,60.07
2023-05-08T13:19:30.670Z,60.35
2023-05-08T13:21:58.657Z,60.40
2023-05-08T13:24:26.963Z,60.34
2023-05-08T13:26:54.983Z,60.33
2023-05-08T13:29:24.296Z,60.62
2023-05-08T13:31:52.270Z,61.11
2023-05-08T13:34:20.780Z,61.20
2023-05-08T13:36:48.903Z,61.13
2023-05-08T13:39:16.873Z,61.38
2023-05-08T13:41:44.866Z,61.55
2023-05-08T13:44:12.874Z,61.87
2023-05-08T13:46:42.186Z,61.38
2023-05-08T13:49:10.269Z,61.15
2023-05-08T13:51:38.478Z,61.17
2023-05-08T13:54:06.599Z,61.26
2023-05-08T13:56:35.198Z,61.01
2023-05-08T13:59:03.215Z,61.02
2023-05-08T14:01:31.209Z,60.86
2023-05-08T14:04:00.815Z,61.13
2023-05-08T14:06:28.984Z,60.90
2023-05-08T14:08:57.296Z,60.72
2023-05-08T14:11:25.743Z,60.72
2023-05-08T14:13:53.687Z,60.80
2023-05-08T14:16:21.741Z,60.66
2023-05-08T14:18:49.719Z,60.93
2023-05-08T14:21:19.093Z,60.82
2023-05-08T14:23:47.038Z,60.76
2023-05-08T14:26:15.026Z,60.98
2023-05-08T14:28:42.957Z,60.67
2023-05-08T14:31:11.253Z,60.52
2023-05-08T14:33:40.022Z,60.64
2023-05-08T14:36:08.888Z,60.63
2023-05-08T14:38:38.299Z,60.77
2023-05-08T14:41:06.420Z,60.36
2023-05-08T14:43:34.435Z,60.38
2023-05-08T14:46:02.452Z,60.75
2023-05-08T14:48:30.424Z,60.58
2023-05-08T14:50:58.729Z,60.48
2023-05-08T14:53:26.977Z,60.51
2023-05-08T14:55:56.635Z,60.42
2023-05-08T14:58:24.889Z,60.43
2023-05-08T15:00:52.901Z,60.44
2023-05-08T15:03:21.000Z,60.55
2023-05-08T15:05:49.022Z,60.31
2023-05-08T15:08:19.696Z,60.44
2023-05-08T15:10:47.865Z,60.34
2023-05-08T15:13:17.292Z,60.53
2023-05-08T15:15:46.417Z,60.54
2023-05-08T15:18:14.346Z,60.26
2023-05-08T15:20:42.331Z,60.53
2023-05-08T15:23:12.826Z,60.60
2023-05-08T15:25:40.807Z,60.33
2023-05-08T15:28:08.851Z,60.34
2023-05-08T15:30:38.449Z,60.47
2023-05-08T15:33:06.477Z,60.41
2023-05-08T15:35:34.500Z,60.52
2023-05-08T15:38:05.984Z,60.47
2023-05-08T15:40:34.185Z,60.46
2023-05-08T15:43:02.216Z,60.53
2023-05-08T15:45:30.188Z,60.41
2023-05-08T15:47:59.631Z,60.50
2023-05-08T15:50:30.030Z,60.69
2023-05-08T15:52:57.952Z,60.68
2023-05-08T15:55:25.930Z,60.70
2023-05-08T15:57:53.878Z,60.62
2023-05-08T16:00:25.041Z,60.65
2023-05-08T16:02:55.319Z,60.48
2023-05-08T16:05:24.678Z,60.56
2023-05-08T16:07:53.919Z,60.55
2023-05-08T16:10:21.885Z,60.48
2023-05-08T16:12:50.396Z,60.55
2023-05-08T16:15:18.443Z,60.53
2023-05-08T16:17:46.473Z,60.79
2023-05-08T16:20:14.505Z,60.41
2023-05-08T16:22:43.903Z,60.71
2023-05-08T16:25:14.795Z,60.58
2023-05-08T16:27:43.032Z,60.62
2023-05-08T16:30:12.121Z,60.48
2023-05-08T16:32:40.853Z,60.50
2023-05-08T16:35:09.517Z,60.59
2023-05-08T16:37:37.799Z,60.56
2023-05-08T16:40:10.317Z,60.55
2023-05-08T16:42:38.536Z,60.62
2023-05-08T16:45:07.601Z,60.70
2023-05-08T16:47:36.634Z,60.62
2023-05-08T16:50:04.955Z,60.62
2023-05-08T16:52:33.787Z,60.57
2023-05-08T16:55:01.786Z,60.51
2023-05-08T16:57:31.117Z,60.51
2023-05-08T16:59:59.155Z,60.34
2023-05-08T17:02:27.217Z,60.52
2023-05-08T17:04:55.375Z,60.59
2023-05-08T17:07:23.309Z,60.53
2023-05-08T17:09:56.305Z,60.66
2023-05-08T17:12:24.372Z,60.54
2023-05-08T17:14:53.713Z,60.47
2023-05-08T17:17:21.657Z,60.51
2023-05-08T17:19:49.606Z,60.63
2023-05-08T17:22:19.542Z,60.56
2023-05-08T17:24:47.594Z,60.51
2023-05-08T17:27:15.560Z,60.25
2023-05-08T17:29:43.558Z,60.40
2023-05-08T17:32:15.731Z,60.21
2023-05-08T17:34:43.768Z,60.33
2023-05-08T17:37:11.886Z,60.27
2023-05-08T17:39:39.944Z,60.28
2023-05-08T17:42:07.907Z,60.34
2023-05-08T17:44:36.772Z,60.37
2023-05-08T17:47:04.883Z,60.38
2023-05-08T17:49:34.263Z,60.37
2023-05-08T17:52:03.451Z,60.41
2023-05-08T17:54:31.464Z,60.34
2023-05-08T17:56:59.446Z,60.34
2023-05-08T17:59:27.353Z,60.47
2023-05-08T18:01:55.630Z,59.82
2023-05-08T18:04:23.585Z,59.73
2023-05-08T18:06:52.962Z,59.85
2023-05-08T18:09:21.122Z,59.79
2023-05-08T18:11:49.080Z,60.68
2023-05-08T18:14:17.023Z,60.42
2023-05-08T18:16:44.978Z,60.36
2023-05-08T18:19:12.982Z,60.36
2023-05-08T18:21:40.931Z,60.49
2023-05-08T18:24:10.356Z,59.66
2023-05-08T18:26:38.492Z,59.89
2023-05-08T18:29:06.855Z,60.25
2023-05-08T18:31:34.989Z,60.55
2023-05-08T18:34:03.016Z,60.46
2023-05-08T18:36:31.902Z,60.76
2023-05-08T18:39:00.037Z,60.61
2023-05-08T18:41:29.396Z,60.66
2023-05-08T18:43:57.458Z,60.69
2023-05-08T18:46:25.587Z,60.83
2023-05-08T18:48:53.515Z,60.70
2023-05-08T18:51:21.483Z,60.92
2023-05-08T18:53:52.441Z,61.05
2023-05-08T18:56:21.181Z,60.99
2023-05-08T18:58:50.556Z,61.25
2023-05-08T19:01:20.240Z,61.20
2023-05-08T19:03:48.572Z,61.24
2023-05-08T19:06:16.963Z,61.21
2023-05-08T19:08:45.003Z,61.15
2023-05-08T19:11:15.255Z,61.32
2023-05-08T19:13:43.204Z,61.20
2023-05-08T19:16:12.573Z,61.31
2023-05-08T19:18:40.526Z,61.22
2023-05-08T19:21:08.604Z,61.44
2023-05-08T19:23:36.566Z,61.46
2023-05-08T19:26:04.720Z,61.40
2023-05-08T19:28:32.832Z,61.45
2023-05-08T19:31:03.657Z,61.45
2023-05-08T19:33:32.992Z,61.47
2023-05-08T19:36:00.945Z,61.60
2023-05-08T19:38:28.885Z,61.64
2023-05-08T19:40:57.874Z,61.63
2023-05-08T19:43:26.549Z,61.86
2023-05-08T19:45:54.623Z,61.84
2023-05-08T19:48:22.639Z,61.73
2023-05-08T19:50:54.676Z,61.90
2023-05-08T19:53:23.375Z,62.01
2023-05-08T19:55:51.418Z,61.95
2023-05-08T19:58:19.306Z,61.91
2023-05-08T20:03:18.248Z,61.52
2023-05-08T20:05:46.430Z,61.63
2023-05-08T20:08:15.721Z,61.67
2023-05-08T20:10:43.658Z,61.60
2023-05-08T20:13:11.861Z,61.65
2023-05-08T20:15:39.834Z,61.42
2023-05-08T20:18:07.846Z,61.53
2023-05-08T20:20:35.950Z,61.36
2023-05-08T20:23:06.187Z,61.42
2023-05-08T20:25:35.600Z,61.35
2023-05-08T20:28:03.533Z,61.55
2023-05-08T20:30:31.528Z,61.56
2023-05-08T20:33:04.630Z,61.56
2023-05-08T20:35:33.036Z,61.55
2023-05-08T20:38:00.975Z,61.71
2023-05-08T20:40:29.163Z,61.50
2023-05-08T20:42:58.447Z,61.36
2023-05-08T20:45:28.805Z,61.44
2023-05-08T20:47:56.876Z,61.42
2023-05-08T20:50:27.699Z,60.79
2023-05-08T20:52:55.792Z,61.03
2023-05-08T20:55:24.137Z,61.13
2023-05-08T20:57:52.125Z,61.07
2023-05-08T21:00:22.335Z,61.23
2023-05-08T21:02:50.434Z,61.14
2023-05-08T21:05:18.649Z,61.14
2023-05-08T21:07:46.621Z,61.39
2023-05-08T21:10:14.913Z,61.42
2023-05-08T21:12:44.550Z,61.36
2023-05-08T21:15:12.760Z,61.20
2023-05-08T21:17:42.361Z,61.05
2023-05-08T21:20:11.373Z,61.25
2023-05-08T21:22:39.336Z,61.43
2023-05-08T21:25:07.702Z,61.34
2023-05-08T21:27:35.678Z,61.61
2023-05-08T21:30:04.056Z,61.45
2023-05-08T21:32:32.056Z,61.15
2023-05-08T21:35:01.399Z,61.30
2023-05-08T21:37:29.307Z,61.34
2023-05-08T21:39:57.307Z,61.37
2023-05-08T21:42:28.098Z,61.34
2023-05-08T21:44:56.263Z,61.18
2023-05-08T21:47:27.964Z,61.55
2023-05-08T21:49:56.266Z,61.28
2023-05-08T21:52:26.105Z,61.40
2023-05-08T21:54:54.220Z,61.28
2023-05-08T21:57:22.110Z,61.43
2023-05-08T21:59:50.197Z,61.30
2023-05-08T22:02:18.968Z,61.24
2023-05-08T22:04:46.958Z,61.26
2023-05-08T22:07:14.928Z,61.35
2023-05-08T22:09:44.294Z,61.46
2023-05-08T22:12:12.308Z,61.22
2023-05-08T22:14:40.234Z,61.31
2023-05-08T22:17:08.167Z,61.21
2023-05-08T22:19:36.196Z,61.06
2023-05-08T22:22:06.219Z,61.00
2023-05-08T22:24:34.224Z,61.10
2023-05-08T22:27:06.448Z,61.08
2023-05-08T22:29:34.444Z,61.17
2023-05-08T22:32:03.410Z,61.12
2023-05-08T22:34:31.413Z,61.08
2023-05-08T22:37:02.350Z,61.15
2023-05-08T22:39:33.224Z,60.94
2023-05-08T22:42:04.200Z,60.91
2023-05-08T22:44:33.538Z,60.99
2023-05-08T22:47:01.848Z,61.02
2023-05-08T22:49:30.445Z,60.89
2023-05-08T22:51:58.471Z,60.91
2023-05-08T22:54:26.514Z,60.88
2023-05-08T22:56:55.753Z,60.77
2023-05-08T22:59:25.205Z,60.93
2023-05-08T23:01:54.661Z,60.68
2023-05-08T23:04:22.709Z,60.75
2023-05-08T23:06:50.685Z,60.78
2023-05-08T23:09:18.617Z,60.79
2023-05-08T23:11:46.482Z,60.79
2023-05-08T23:14:17.425Z,60.82
2023-05-08T23:16:46.092Z,60.68
2023-05-08T23:19:15.462Z,60.64
2023-05-08T23:21:43.468Z,60.68
2023-05-08T23:24:11.476Z,60.69
2023-05-08T23:26:41.921Z,60.45
2023-05-08T23:29:10.172Z,60.60
2023-05-08T23:31:38.141Z,60.63
2023-05-08T23:34:06.168Z,60.47
2023-05-08T23:36:35.682Z,60.56
2023-05-08T23:39:03.738Z,60.57
2023-05-08T23:41:32.326Z,60.49
2023-05-08T23:44:00.324Z,60.51
2023-05-08T23:46:28.537Z,60.28
2023-05-08T23:48:56.531Z,60.48
2023-05-08T23:51:24.594Z,60.21
2023-05-08T23:53:56.376Z,60.21
2023-05-08T23:56:24.859Z,60.31
2023-05-08T23:58:52.823Z,60.27
